Paris, Michigan
Current Conditions -  °F | °C
As of 11:54 PM on Monday 20 Oct 2014 (Local Time) from KRQB Reporting Station
Haze Haze  
Wind Chill: 42°   Ceiling: 1000
Heat Index: 46°   Visibility: 5mi
Dew Point: 46°   Wind: 6mph
Humidity: 100%   Direction: 330°NNW
Pressure: 29.94"   Gusts: NA
Location:  43.77°N, 85.5°W
Report Text: KRQB 210354Z AUTO 33005KT 5SM BR BKN010 OVC015 08/08 A2994 RMK AO2 T00750075
Loading
Personal Weather Stations






























Interactive Weather Map
Tropical Storm Tracking
New forecast layout! Learn more

10-Day Weather Forecast

Advertisements
Track Severe Weather on mobile